sensor_id;sensor_type;location;lat;lon;timestamp;pressure;altitude;pressure_sealevel;temperature;humidity
50682;BME280;36779;52.168;20.878;2022-11-20T00:02:15;100402.11;;;-5.62;71.62
50682;BME280;36779;52.168;20.878;2022-11-20T00:04:44;100401.06;;;-5.66;71.63
50682;BME280;36779;52.168;20.878;2022-11-20T00:07:13;100404.39;;;-5.72;71.38
50682;BME280;36779;52.168;20.878;2022-11-20T00:09:43;100409.86;;;-5.74;71.41
50682;BME280;36779;52.168;20.878;2022-11-20T00:12:14;100410.22;;;-5.74;71.51
50682;BME280;36779;52.168;20.878;2022-11-20T00:14:44;100407.34;;;-5.72;71.53
50682;BME280;36779;52.168;20.878;2022-11-20T00:17:14;100408.16;;;-5.66;71.64
50682;BME280;36779;52.168;20.878;2022-11-20T00:19:43;100412.23;;;-5.59;71.71
50682;BME280;36779;52.168;20.878;2022-11-20T00:22:15;100411.14;;;-5.53;71.65
50682;BME280;36779;52.168;20.878;2022-11-20T00:24:43;100407.59;;;-5.47;71.70
50682;BME280;36779;52.168;20.878;2022-11-20T00:27:11;100407.11;;;-5.44;71.76
50682;BME280;36779;52.168;20.878;2022-11-20T00:29:40;100402.29;;;-5.39;71.72
50682;BME280;36779;52.168;20.878;2022-11-20T00:32:09;100398.03;;;-5.37;71.82
50682;BME280;36779;52.168;20.878;2022-11-20T00:34:38;100400.54;;;-5.35;71.89
50682;BME280;36779;52.168;20.878;2022-11-20T00:37:07;100396.17;;;-5.34;72.09
50682;BME280;36779;52.168;20.878;2022-11-20T00:39:37;100396.91;;;-5.35;71.79
50682;BME280;36779;52.168;20.878;2022-11-20T00:42:05;100395.70;;;-5.35;72.02
50682;BME280;36779;52.168;20.878;2022-11-20T00:44:34;100394.44;;;-5.33;71.91
50682;BME280;36779;52.168;20.878;2022-11-20T00:47:04;100394.55;;;-5.32;71.97
50682;BME280;36779;52.168;20.878;2022-11-20T00:49:32;100391.20;;;-5.31;71.90
50682;BME280;36779;52.168;20.878;2022-11-20T00:52:00;100389.63;;;-5.31;72.02
50682;BME280;36779;52.168;20.878;2022-11-20T00:54:29;100385.45;;;-5.30;71.96
50682;BME280;36779;52.168;20.878;2022-11-20T00:56:57;100382.39;;;-5.27;71.89
50682;BME280;36779;52.168;20.878;2022-11-20T00:59:29;100379.79;;;-5.23;71.92
50682;BME280;36779;52.168;20.878;2022-11-20T01:02:00;100379.20;;;-5.17;72.01
50682;BME280;36779;52.168;20.878;2022-11-20T01:04:31;100379.42;;;-5.10;71.94
50682;BME280;36779;52.168;20.878;2022-11-20T01:07:00;100375.86;;;-5.03;71.94
50682;BME280;36779;52.168;20.878;2022-11-20T01:09:29;100368.05;;;-4.99;71.94
50682;BME280;36779;52.168;20.878;2022-11-20T01:11:59;100365.66;;;-4.95;72.05
50682;BME280;36779;52.168;20.878;2022-11-20T01:14:30;100365.44;;;-4.94;71.99
50682;BME280;36779;52.168;20.878;2022-11-20T01:16:58;100362.32;;;-4.94;72.03
50682;BME280;36779;52.168;20.878;2022-11-20T01:19:27;100359.64;;;-4.97;71.98
50682;BME280;36779;52.168;20.878;2022-11-20T01:21:56;100357.18;;;-5.00;71.99
50682;BME280;36779;52.168;20.878;2022-11-20T01:24:24;100360.59;;;-5.03;72.02
50682;BME280;36779;52.168;20.878;2022-11-20T01:26:52;100354.98;;;-5.05;72.05
50682;BME280;36779;52.168;20.878;2022-11-20T01:29:23;100356.60;;;-5.07;71.92
50682;BME280;36779;52.168;20.878;2022-11-20T01:31:53;100354.80;;;-5.09;71.84
50682;BME280;36779;52.168;20.878;2022-11-20T01:34:23;100353.48;;;-5.11;71.87
50682;BME280;36779;52.168;20.878;2022-11-20T01:36:53;100353.52;;;-5.12;71.98
50682;BME280;36779;52.168;20.878;2022-11-20T01:39:26;100350.30;;;-5.13;71.95
50682;BME280;36779;52.168;20.878;2022-11-20T01:41:56;100349.81;;;-5.15;71.93
50682;BME280;36779;52.168;20.878;2022-11-20T01:44:55;100343.55;;;-5.18;71.92
50682;BME280;36779;52.168;20.878;2022-11-20T01:47:31;100341.65;;;-5.18;71.78
50682;BME280;36779;52.168;20.878;2022-11-20T01:50:10;100343.06;;;-5.15;71.78
50682;BME280;36779;52.168;20.878;2022-11-20T01:52:44;100347.40;;;-5.11;71.85
50682;BME280;36779;52.168;20.878;2022-11-20T01:55:23;100352.73;;;-5.05;71.86
50682;BME280;36779;52.168;20.878;2022-11-20T01:57:59;100353.33;;;-4.99;71.97
50682;BME280;36779;52.168;20.878;2022-11-20T02:00:30;100358.66;;;-4.94;72.03
50682;BME280;36779;52.168;20.878;2022-11-20T02:03:00;100359.22;;;-4.90;72.17
50682;BME280;36779;52.168;20.878;2022-11-20T02:05:35;100366.41;;;-4.88;72.14
50682;BME280;36779;52.168;20.878;2022-11-20T02:08:06;100369.63;;;-4.87;72.09
50682;BME280;36779;52.168;20.878;2022-11-20T02:10:35;100369.06;;;-4.86;72.01
50682;BME280;36779;52.168;20.878;2022-11-20T02:13:04;100365.30;;;-4.87;72.10
50682;BME280;36779;52.168;20.878;2022-11-20T02:15:52;100361.51;;;-4.87;72.01
50682;BME280;36779;52.168;20.878;2022-11-20T02:18:24;100354.58;;;-4.87;71.96
50682;BME280;36779;52.168;20.878;2022-11-20T02:21:01;100358.11;;;-4.89;72.00
50682;BME280;36779;52.168;20.878;2022-11-20T02:23:39;100356.21;;;-4.89;72.00
50682;BME280;36779;52.168;20.878;2022-11-20T02:26:10;100355.17;;;-4.89;72.03
50682;BME280;36779;52.168;20.878;2022-11-20T02:28:41;100352.20;;;-4.88;72.05
50682;BME280;36779;52.168;20.878;2022-11-20T02:31:11;100350.33;;;-4.89;71.98
50682;BME280;36779;52.168;20.878;2022-11-20T02:33:39;100352.09;;;-4.90;71.99
50682;BME280;36779;52.168;20.878;2022-11-20T02:36:09;100351.56;;;-4.90;71.99
50682;BME280;36779;52.168;20.878;2022-11-20T02:38:40;100357.27;;;-4.90;71.99
50682;BME280;36779;52.168;20.878;2022-11-20T02:41:09;100359.34;;;-4.89;72.06
50682;BME280;36779;52.168;20.878;2022-11-20T02:43:39;100358.31;;;-4.89;71.88
50682;BME280;36779;52.168;20.878;2022-11-20T02:46:09;100355.89;;;-4.90;72.02
50682;BME280;36779;52.168;20.878;2022-11-20T02:48:40;100348.26;;;-4.90;72.06
50682;BME280;36779;52.168;20.878;2022-11-20T02:51:09;100350.23;;;-4.87;72.01
50682;BME280;36779;52.168;20.878;2022-11-20T02:53:39;100347.45;;;-4.83;72.01
50682;BME280;36779;52.168;20.878;2022-11-20T02:56:09;100349.36;;;-4.79;71.92
50682;BME280;36779;52.168;20.878;2022-11-20T02:58:37;100344.81;;;-4.74;71.99
50682;BME280;36779;52.168;20.878;2022-11-20T03:01:07;100340.95;;;-4.69;72.07
50682;BME280;36779;52.168;20.878;2022-11-20T03:03:35;100344.13;;;-4.66;72.13
50682;BME280;36779;52.168;20.878;2022-11-20T03:06:05;100345.52;;;-4.66;72.10
50682;BME280;36779;52.168;20.878;2022-11-20T03:08:35;100338.57;;;-4.66;72.11
50682;BME280;36779;52.168;20.878;2022-11-20T03:11:07;100334.31;;;-4.67;72.04
50682;BME280;36779;52.168;20.878;2022-11-20T03:13:35;100340.71;;;-4.71;71.96
50682;BME280;36779;52.168;20.878;2022-11-20T03:16:13;100341.21;;;-4.75;71.97
50682;BME280;36779;52.168;20.878;2022-11-20T03:18:43;100337.66;;;-4.81;72.04
50682;BME280;36779;52.168;20.878;2022-11-20T03:21:13;100338.30;;;-4.88;71.77
50682;BME280;36779;52.168;20.878;2022-11-20T03:23:41;100334.87;;;-4.93;71.82
50682;BME280;36779;52.168;20.878;2022-11-20T03:26:15;100331.17;;;-5.00;71.78
50682;BME280;36779;52.168;20.878;2022-11-20T03:28:48;100332.10;;;-5.05;71.81
50682;BME280;36779;52.168;20.878;2022-11-20T03:31:19;100334.67;;;-5.13;71.81
50682;BME280;36779;52.168;20.878;2022-11-20T03:33:49;100330.48;;;-5.21;71.75
50682;BME280;36779;52.168;20.878;2022-11-20T03:36:18;100332.49;;;-5.27;71.72
50682;BME280;36779;52.168;20.878;2022-11-20T03:38:52;100332.27;;;-5.30;71.85
50682;BME280;36779;52.168;20.878;2022-11-20T03:41:23;100331.50;;;-5.32;71.83
50682;BME280;36779;52.168;20.878;2022-11-20T03:43:57;100328.59;;;-5.34;71.71
50682;BME280;36779;52.168;20.878;2022-11-20T03:46:32;100328.20;;;-5.32;71.67
50682;BME280;36779;52.168;20.878;2022-11-20T03:49:06;100321.36;;;-5.31;71.82
50682;BME280;36779;52.168;20.878;2022-11-20T03:51:35;100316.94;;;-5.32;71.76
50682;BME280;36779;52.168;20.878;2022-11-20T03:54:06;100315.34;;;-5.35;71.99
50682;BME280;36779;52.168;20.878;2022-11-20T03:56:38;100314.31;;;-5.40;71.74
50682;BME280;36779;52.168;20.878;2022-11-20T03:59:09;100318.53;;;-5.46;71.75
50682;BME280;36779;52.168;20.878;2022-11-20T04:01:40;100319.80;;;-5.51;71.98
50682;BME280;36779;52.168;20.878;2022-11-20T04:04:16;100319.90;;;-5.58;71.85
50682;BME280;36779;52.168;20.878;2022-11-20T04:06:46;100320.01;;;-5.65;71.86
50682;BME280;36779;52.168;20.878;2022-11-20T04:09:15;100321.13;;;-5.72;71.88
50682;BME280;36779;52.168;20.878;2022-11-20T04:11:43;100322.48;;;-5.75;71.72
50682;BME280;36779;52.168;20.878;2022-11-20T04:14:14;100315.65;;;-5.82;71.81
50682;BME280;36779;52.168;20.878;2022-11-20T04:16:43;100320.56;;;-5.88;71.80
50682;BME280;36779;52.168;20.878;2022-11-20T04:19:15;100320.98;;;-5.94;71.73
50682;BME280;36779;52.168;20.878;2022-11-20T04:21:44;100326.70;;;-5.98;71.71
50682;BME280;36779;52.168;20.878;2022-11-20T04:24:15;100326.09;;;-6.01;71.74
50682;BME280;36779;52.168;20.878;2022-11-20T04:26:43;100327.98;;;-6.00;71.79
50682;BME280;36779;52.168;20.878;2022-11-20T04:29:12;100329.39;;;-5.97;71.75
50682;BME280;36779;52.168;20.878;2022-11-20T04:31:42;100329.16;;;-5.95;71.81
50682;BME280;36779;52.168;20.878;2022-11-20T04:34:12;100326.48;;;-5.93;71.67
50682;BME280;36779;52.168;20.878;2022-11-20T04:36:41;100328.67;;;-5.92;71.79
50682;BME280;36779;52.168;20.878;2022-11-20T04:39:14;100325.70;;;-5.92;71.97
50682;BME280;36779;52.168;20.878;2022-11-20T04:41:43;100321.63;;;-5.93;72.01
50682;BME280;36779;52.168;20.878;2022-11-20T04:44:14;100320.54;;;-5.96;71.96
50682;BME280;36779;52.168;20.878;2022-11-20T04:47:03;100319.16;;;-6.00;72.02
50682;BME280;36779;52.168;20.878;2022-11-20T04:49:33;100315.81;;;-6.07;71.90
50682;BME280;36779;52.168;20.878;2022-11-20T04:52:02;100312.21;;;-6.13;71.87
50682;BME280;36779;52.168;20.878;2022-11-20T04:54:31;100312.61;;;-6.19;71.76
50682;BME280;36779;52.168;20.878;2022-11-20T04:57:05;100312.14;;;-6.25;71.73
50682;BME280;36779;52.168;20.878;2022-11-20T04:59:41;100310.05;;;-6.29;71.90
50682;BME280;36779;52.168;20.878;2022-11-20T05:02:11;100308.95;;;-6.32;71.92
50682;BME280;36779;52.168;20.878;2022-11-20T05:04:39;100312.50;;;-6.35;71.89
50682;BME280;36779;52.168;20.878;2022-11-20T05:07:10;100310.89;;;-6.37;71.87
50682;BME280;36779;52.168;20.878;2022-11-20T05:09:42;100308.90;;;-6.40;71.72
50682;BME280;36779;52.168;20.878;2022-11-20T05:12:13;100311.15;;;-6.40;71.75
50682;BME280;36779;52.168;20.878;2022-11-20T05:14:43;100310.09;;;-6.40;71.95
50682;BME280;36779;52.168;20.878;2022-11-20T05:17:15;100310.34;;;-6.37;71.78
50682;BME280;36779;52.168;20.878;2022-11-20T05:19:46;100309.74;;;-6.35;71.69
50682;BME280;36779;52.168;20.878;2022-11-20T05:22:20;100309.17;;;-6.38;71.57
50682;BME280;36779;52.168;20.878;2022-11-20T05:24:49;100307.99;;;-6.39;71.82
50682;BME280;36779;52.168;20.878;2022-11-20T05:27:18;100303.06;;;-6.36;72.01
50682;BME280;36779;52.168;20.878;2022-11-20T05:29:46;100304.88;;;-6.34;71.95
50682;BME280;36779;52.168;20.878;2022-11-20T05:32:15;100305.55;;;-6.33;71.99
50682;BME280;36779;52.168;20.878;2022-11-20T05:34:49;100302.30;;;-6.34;72.07
50682;BME280;36779;52.168;20.878;2022-11-20T05:37:18;100296.09;;;-6.40;71.91
50682;BME280;36779;52.168;20.878;2022-11-20T05:39:47;100293.98;;;-6.44;71.96
50682;BME280;36779;52.168;20.878;2022-11-20T05:42:16;100291.69;;;-6.47;71.99
50682;BME280;36779;52.168;20.878;2022-11-20T05:45:02;100287.63;;;-6.54;72.01
50682;BME280;36779;52.168;20.878;2022-11-20T05:47:33;100290.70;;;-6.58;72.02
50682;BME280;36779;52.168;20.878;2022-11-20T05:50:03;100291.72;;;-6.61;71.88
50682;BME280;36779;52.168;20.878;2022-11-20T05:52:32;100293.85;;;-6.68;71.89
50682;BME280;36779;52.168;20.878;2022-11-20T05:55:06;100295.91;;;-6.77;71.70
50682;BME280;36779;52.168;20.878;2022-11-20T05:57:35;100300.04;;;-6.81;71.74
50682;BME280;36779;52.168;20.878;2022-11-20T06:00:07;100296.02;;;-6.80;71.80
50682;BME280;36779;52.168;20.878;2022-11-20T06:02:36;100293.16;;;-6.78;71.87
50682;BME280;36779;52.168;20.878;2022-11-20T06:05:06;100284.53;;;-6.73;71.86
50682;BME280;36779;52.168;20.878;2022-11-20T06:07:35;100280.12;;;-6.67;72.08
50682;BME280;36779;52.168;20.878;2022-11-20T06:10:04;100276.92;;;-6.55;72.29
50682;BME280;36779;52.168;20.878;2022-11-20T06:12:33;100276.21;;;-6.45;72.31
50682;BME280;36779;52.168;20.878;2022-11-20T06:15:02;100276.23;;;-6.36;72.32
50682;BME280;36779;52.168;20.878;2022-11-20T06:17:33;100277.68;;;-6.28;72.34
50682;BME280;36779;52.168;20.878;2022-11-20T06:20:04;100278.22;;;-6.20;72.32
50682;BME280;36779;52.168;20.878;2022-11-20T06:22:33;100281.94;;;-6.09;72.52
50682;BME280;36779;52.168;20.878;2022-11-20T06:25:02;100275.13;;;-5.98;72.73
50682;BME280;36779;52.168;20.878;2022-11-20T06:27:31;100273.63;;;-5.95;72.65
50682;BME280;36779;52.168;20.878;2022-11-20T06:29:59;100269.77;;;-5.98;72.55
50682;BME280;36779;52.168;20.878;2022-11-20T06:32:32;100271.93;;;-6.05;72.38
50682;BME280;36779;52.168;20.878;2022-11-20T06:35:01;100271.90;;;-6.13;72.19
50682;BME280;36779;52.168;20.878;2022-11-20T06:37:33;100269.05;;;-6.20;72.20
50682;BME280;36779;52.168;20.878;2022-11-20T06:40:02;100272.46;;;-6.27;72.23
50682;BME280;36779;52.168;20.878;2022-11-20T06:42:32;100270.48;;;-6.35;72.19
50682;BME280;36779;52.168;20.878;2022-11-20T06:45:01;100271.09;;;-6.42;72.16
50682;BME280;36779;52.168;20.878;2022-11-20T06:47:32;100278.22;;;-6.47;72.08
50682;BME280;36779;52.168;20.878;2022-11-20T06:52:41;100276.60;;;-6.55;72.11
50682;BME280;36779;52.168;20.878;2022-11-20T06:55:11;100273.30;;;-6.59;72.18
50682;BME280;36779;52.168;20.878;2022-11-20T06:57:39;100273.59;;;-6.63;72.15
50682;BME280;36779;52.168;20.878;2022-11-20T07:02:44;100265.70;;;-6.69;72.17
50682;BME280;36779;52.168;20.878;2022-11-20T07:05:13;100265.89;;;-6.69;72.11
50682;BME280;36779;52.168;20.878;2022-11-20T07:07:44;100261.29;;;-6.66;72.20
50682;BME280;36779;52.168;20.878;2022-11-20T07:10:14;100259.56;;;-6.61;72.12
50682;BME280;36779;52.168;20.878;2022-11-20T07:12:48;100255.84;;;-6.54;72.19
50682;BME280;36779;52.168;20.878;2022-11-20T07:15:17;100257.40;;;-6.45;72.37
50682;BME280;36779;52.168;20.878;2022-11-20T07:17:46;100257.42;;;-6.37;72.27
50682;BME280;36779;52.168;20.878;2022-11-20T07:20:15;100254.88;;;-6.29;72.51
50682;BME280;36779;52.168;20.878;2022-11-20T07:22:44;100256.70;;;-6.23;72.30
50682;BME280;36779;52.168;20.878;2022-11-20T07:25:12;100252.45;;;-6.16;72.39
50682;BME280;36779;52.168;20.878;2022-11-20T07:27:45;100251.79;;;-6.08;72.41
50682;BME280;36779;52.168;20.878;2022-11-20T07:30:15;100254.51;;;-5.98;72.47
50682;BME280;36779;52.168;20.878;2022-11-20T07:32:46;100261.17;;;-5.87;72.48
50682;BME280;36779;52.168;20.878;2022-11-20T07:35:15;100268.49;;;-5.80;72.64
50682;BME280;36779;52.168;20.878;2022-11-20T07:37:44;100264.65;;;-5.75;72.58
50682;BME280;36779;52.168;20.878;2022-11-20T07:40:13;100260.36;;;-5.68;72.61
50682;BME280;36779;52.168;20.878;2022-11-20T07:42:48;100260.04;;;-5.60;72.71
50682;BME280;36779;52.168;20.878;2022-11-20T07:45:17;100256.38;;;-5.50;72.81
50682;BME280;36779;52.168;20.878;2022-11-20T07:47:45;100252.08;;;-5.43;72.77
50682;BME280;36779;52.168;20.878;2022-11-20T07:50:15;100253.27;;;-5.38;72.71
50682;BME280;36779;52.168;20.878;2022-11-20T07:52:45;100253.61;;;-5.34;72.92
50682;BME280;36779;52.168;20.878;2022-11-20T07:55:15;100251.14;;;-5.33;72.80
50682;BME280;36779;52.168;20.878;2022-11-20T07:57:44;100249.66;;;-5.31;72.86
50682;BME280;36779;52.168;20.878;2022-11-20T08:00:15;100248.14;;;-5.27;72.92
50682;BME280;36779;52.168;20.878;2022-11-20T08:02:44;100246.88;;;-5.26;72.86
50682;BME280;36779;52.168;20.878;2022-11-20T08:05:12;100242.36;;;-5.26;72.90
50682;BME280;36779;52.168;20.878;2022-11-20T08:07:44;100240.59;;;-5.25;72.84
50682;BME280;36779;52.168;20.878;2022-11-20T08:10:13;100242.48;;;-5.25;72.82
50682;BME280;36779;52.168;20.878;2022-11-20T08:12:47;100243.77;;;-5.22;72.93
50682;BME280;36779;52.168;20.878;2022-11-20T08:15:39;100237.94;;;-5.20;72.90
50682;BME280;36779;52.168;20.878;2022-11-20T08:18:09;100238.55;;;-5.06;73.21
50682;BME280;36779;52.168;20.878;2022-11-20T08:21:01;100235.77;;;-4.63;73.75
50682;BME280;36779;52.168;20.878;2022-11-20T08:23:31;100229.89;;;-4.52;73.53
50682;BME280;36779;52.168;20.878;2022-11-20T08:26:00;100226.08;;;-4.44;73.51
50682;BME280;36779;52.168;20.878;2022-11-20T08:28:33;100226.94;;;-4.44;73.18
50682;BME280;36779;52.168;20.878;2022-11-20T08:31:02;100230.65;;;-4.42;73.17
50682;BME280;36779;52.168;20.878;2022-11-20T08:33:35;100233.31;;;-4.36;73.35
50682;BME280;36779;52.168;20.878;2022-11-20T08:36:05;100229.05;;;-4.26;73.50
50682;BME280;36779;52.168;20.878;2022-11-20T08:38:34;100230.33;;;-4.20;73.30
50682;BME280;36779;52.168;20.878;2022-11-20T08:41:04;100236.91;;;-4.13;73.27
50682;BME280;36779;52.168;20.878;2022-11-20T08:44:05;100234.82;;;-4.01;73.20
50682;BME280;36779;52.168;20.878;2022-11-20T08:46:51;100227.68;;;-3.90;73.03
50682;BME280;36779;52.168;20.878;2022-11-20T08:49:20;100215.46;;;-3.82;72.96
50682;BME280;36779;52.168;20.878;2022-11-20T08:51:50;100206.27;;;-3.72;73.11
50682;BME280;36779;52.168;20.878;2022-11-20T08:54:21;100200.09;;;-3.63;73.08
50682;BME280;36779;52.168;20.878;2022-11-20T08:56:51;100197.88;;;-3.57;72.98
50682;BME280;36779;52.168;20.878;2022-11-20T08:59:20;100198.30;;;-3.47;73.30
50682;BME280;36779;52.168;20.878;2022-11-20T09:02:11;100200.90;;;-3.37;73.27
50682;BME280;36779;52.168;20.878;2022-11-20T09:04:43;100202.84;;;-3.31;73.38
50682;BME280;36779;52.168;20.878;2022-11-20T09:07:12;100198.08;;;-3.26;73.24
50682;BME280;36779;52.168;20.878;2022-11-20T09:09:43;100187.96;;;-3.22;73.35
50682;BME280;36779;52.168;20.878;2022-11-20T09:12:14;100184.39;;;-3.20;73.26
50682;BME280;36779;52.168;20.878;2022-11-20T09:14:43;100179.14;;;-3.19;73.29
50682;BME280;36779;52.168;20.878;2022-11-20T09:17:11;100179.34;;;-3.17;73.29
50682;BME280;36779;52.168;20.878;2022-11-20T09:19:41;100181.30;;;-3.14;73.26
50682;BME280;36779;52.168;20.878;2022-11-20T09:22:12;100182.44;;;-3.10;73.39
50682;BME280;36779;52.168;20.878;2022-11-20T09:24:46;100185.44;;;-3.03;73.54
50682;BME280;36779;52.168;20.878;2022-11-20T09:27:19;100184.48;;;-2.99;73.41
50682;BME280;36779;52.168;20.878;2022-11-20T09:29:48;100181.08;;;-2.94;73.40
50682;BME280;36779;52.168;20.878;2022-11-20T09:32:19;100178.96;;;-2.84;73.63
50682;BME280;36779;52.168;20.878;2022-11-20T09:34:49;100177.08;;;-2.55;74.07
50682;BME280;36779;52.168;20.878;2022-11-20T09:37:17;100176.76;;;-1.93;74.77
50682;BME280;36779;52.168;20.878;2022-11-20T09:39:45;100173.22;;;-1.24;75.09
50682;BME280;36779;52.168;20.878;2022-11-20T09:42:32;100169.96;;;-0.57;75.26
50682;BME280;36779;52.168;20.878;2022-11-20T09:45:35;100173.67;;;0.18;75.16
50682;BME280;36779;52.168;20.878;2022-11-20T09:48:23;100168.58;;;0.84;74.83
50682;BME280;36779;52.168;20.878;2022-11-20T09:51:00;100172.23;;;1.34;74.45
50682;BME280;36779;52.168;20.878;2022-11-20T09:53:44;100166.96;;;1.79;74.29
50682;BME280;36779;52.168;20.878;2022-11-20T09:56:18;100163.45;;;2.19;73.86
50682;BME280;36779;52.168;20.878;2022-11-20T09:58:51;100156.70;;;2.60;73.94
50682;BME280;36779;52.168;20.878;2022-11-20T10:01:23;100151.98;;;2.83;73.33
50682;BME280;36779;52.168;20.878;2022-11-20T10:03:57;100152.55;;;2.96;72.98
50682;BME280;36779;52.168;20.878;2022-11-20T10:06:32;100154.55;;;3.20;73.16
50682;BME280;36779;52.168;20.878;2022-11-20T10:09:11;100152.88;;;3.48;73.11
50682;BME280;36779;52.168;20.878;2022-11-20T10:11:48;100152.40;;;3.69;72.64
50682;BME280;36779;52.168;20.878;2022-11-20T10:14:26;100147.70;;;3.77;72.44
50682;BME280;36779;52.168;20.878;2022-11-20T10:17:03;100145.92;;;3.92;72.27
50682;BME280;36779;52.168;20.878;2022-11-20T10:19:44;100144.62;;;4.08;72.18
50682;BME280;36779;52.168;20.878;2022-11-20T10:22:25;100140.81;;;4.29;72.16
50682;BME280;36779;52.168;20.878;2022-11-20T10:24:58;100142.97;;;4.41;71.94
50682;BME280;36779;52.168;20.878;2022-11-20T10:28:04;100136.36;;;4.53;71.97
50682;BME280;36779;52.168;20.878;2022-11-20T10:30:40;100125.89;;;4.62;71.50
50682;BME280;36779;52.168;20.878;2022-11-20T10:33:15;100124.02;;;4.69;71.78
50682;BME280;36779;52.168;20.878;2022-11-20T10:35:50;100121.90;;;4.74;71.35
50682;BME280;36779;52.168;20.878;2022-11-20T10:38:23;100122.98;;;4.73;71.36
50682;BME280;36779;52.168;20.878;2022-11-20T10:40:57;100119.23;;;4.70;71.26
50682;BME280;36779;52.168;20.878;2022-11-20T10:43:49;100117.74;;;4.67;71.32
50682;BME280;36779;52.168;20.878;2022-11-20T10:46:20;100121.03;;;4.57;71.36
50682;BME280;36779;52.168;20.878;2022-11-20T10:48:50;100119.89;;;4.54;71.28
50682;BME280;36779;52.168;20.878;2022-11-20T10:51:31;100122.94;;;4.43;71.07
50682;BME280;36779;52.168;20.878;2022-11-20T10:54:12;100118.31;;;4.16;71.13
50682;BME280;36779;52.168;20.878;2022-11-20T10:56:48;100120.67;;;4.09;71.50
50682;BME280;36779;52.168;20.878;2022-11-20T10:59:44;100122.55;;;4.01;71.63
50682;BME280;36779;52.168;20.878;2022-11-20T11:02:17;100121.77;;;3.78;71.25
50682;BME280;36779;52.168;20.878;2022-11-20T11:04:47;100116.09;;;3.55;71.31
50682;BME280;36779;52.168;20.878;2022-11-20T11:07:20;100113.37;;;3.39;71.53
50682;BME280;36779;52.168;20.878;2022-11-20T11:09:53;100110.77;;;3.27;71.81
50682;BME280;36779;52.168;20.878;2022-11-20T11:12:25;100110.82;;;3.07;71.77
50682;BME280;36779;52.168;20.878;2022-11-20T11:14:57;100111.73;;;2.84;71.71
50682;BME280;36779;52.168;20.878;2022-11-20T11:17:31;100112.38;;;2.64;71.80
50682;BME280;36779;52.168;20.878;2022-11-20T11:20:05;100108.05;;;2.45;71.68
50682;BME280;36779;52.168;20.878;2022-11-20T11:22:42;100111.84;;;2.23;71.50
50682;BME280;36779;52.168;20.878;2022-11-20T11:25:21;100112.17;;;2.04;71.47
50682;BME280;36779;52.168;20.878;2022-11-20T11:27:58;100110.14;;;1.84;71.39
50682;BME280;36779;52.168;20.878;2022-11-20T11:30:30;100110.21;;;1.64;71.53
50682;BME280;36779;52.168;20.878;2022-11-20T11:33:11;100107.96;;;1.47;71.39
50682;BME280;36779;52.168;20.878;2022-11-20T11:35:46;100106.01;;;1.33;71.51
50682;BME280;36779;52.168;20.878;2022-11-20T11:38:22;100102.57;;;1.17;71.40
50682;BME280;36779;52.168;20.878;2022-11-20T11:40:54;100102.02;;;1.05;71.54
50682;BME280;36779;52.168;20.878;2022-11-20T11:43:25;100101.80;;;0.96;71.49
50682;BME280;36779;52.168;20.878;2022-11-20T11:46:35;100096.45;;;0.85;71.38
50682;BME280;36779;52.168;20.878;2022-11-20T11:49:17;100091.76;;;0.75;71.42
50682;BME280;36779;52.168;20.878;2022-11-20T11:52:00;100088.40;;;0.67;71.47
50682;BME280;36779;52.168;20.878;2022-11-20T11:54:38;100087.75;;;0.61;71.59
50682;BME280;36779;52.168;20.878;2022-11-20T11:57:18;100085.66;;;0.59;71.53
50682;BME280;36779;52.168;20.878;2022-11-20T11:59:57;100081.76;;;0.57;71.53
50682;BME280;36779;52.168;20.878;2022-11-20T12:02:44;100079.27;;;0.52;71.48
50682;BME280;36779;52.168;20.878;2022-11-20T12:05:20;100076.95;;;0.51;71.69
50682;BME280;36779;52.168;20.878;2022-11-20T12:07:52;100073.40;;;0.51;71.63
50682;BME280;36779;52.168;20.878;2022-11-20T12:10:28;100068.79;;;0.53;71.77
50682;BME280;36779;52.168;20.878;2022-11-20T12:13:15;100071.48;;;0.56;71.74
50682;BME280;36779;52.168;20.878;2022-11-20T12:15:47;100073.13;;;0.53;71.53
50682;BME280;36779;52.168;20.878;2022-11-20T12:18:18;100071.54;;;0.48;71.45
50682;BME280;36779;52.168;20.878;2022-11-20T12:20:57;100071.34;;;0.45;71.48
50682;BME280;36779;52.168;20.878;2022-11-20T12:23:44;100067.05;;;0.44;71.52
50682;BME280;36779;52.168;20.878;2022-11-20T12:26:31;100062.13;;;0.42;71.35
50682;BME280;36779;52.168;20.878;2022-11-20T12:29:11;100054.29;;;0.39;71.37
50682;BME280;36779;52.168;20.878;2022-11-20T12:31:59;100049.20;;;0.37;71.31
50682;BME280;36779;52.168;20.878;2022-11-20T12:34:47;100049.40;;;0.34;71.34
50682;BME280;36779;52.168;20.878;2022-11-20T12:40:30;100042.29;;;0.26;71.22
50682;BME280;36779;52.168;20.878;2022-11-20T12:43:13;100039.23;;;0.22;71.30
50682;BME280;36779;52.168;20.878;2022-11-20T12:46:22;100038.11;;;0.20;71.28
50682;BME280;36779;52.168;20.878;2022-11-20T12:49:04;100037.21;;;0.18;71.15
50682;BME280;36779;52.168;20.878;2022-11-20T12:51:57;100035.77;;;0.14;71.20
50682;BME280;36779;52.168;20.878;2022-11-20T12:54:49;100034.80;;;0.05;70.98
50682;BME280;36779;52.168;20.878;2022-11-20T12:57:27;100027.86;;;-0.04;71.03
50682;BME280;36779;52.168;20.878;2022-11-20T13:00:10;100022.16;;;-0.10;71.03
50682;BME280;36779;52.168;20.878;2022-11-20T13:03:09;100018.63;;;-0.15;71.05
50682;BME280;36779;52.168;20.878;2022-11-20T13:05:52;100012.84;;;-0.19;71.07
50682;BME280;36779;52.168;20.878;2022-11-20T13:08:22;100009.63;;;-0.24;70.99
50682;BME280;36779;52.168;20.878;2022-11-20T13:10:58;100007.56;;;-0.27;71.02
50682;BME280;36779;52.168;20.878;2022-11-20T13:13:33;100008.92;;;-0.31;71.08
50682;BME280;36779;52.168;20.878;2022-11-20T13:16:08;100012.17;;;-0.38;70.97
50682;BME280;36779;52.168;20.878;2022-11-20T13:18:42;100011.00;;;-0.41;71.05
50682;BME280;36779;52.168;20.878;2022-11-20T13:21:18;100008.48;;;-0.43;71.05
50682;BME280;36779;52.168;20.878;2022-11-20T13:23:48;100003.20;;;-0.42;71.06